»·PEaware :: QXE2486 KRIV-KOXR

QXE2486 :: KRIV-KOXR

FLIGHT INFORMATION

Flight Status: Arrived
Operator:
Horizon Air
More flights by this operator :: More flights under this callsign
Pilot: Walter H. (552)
Aircraft: DEHAVILLAND DASH 8 400
(DH8D)
More flights by this aircraft type
Origin: KRIV March ARB
United States
Destination: KOXR Oxnard
United States
More flights between these airports :: More routes between these airports
Route: +PDZ V197 POM V264 ITSME V186 FIM
File this flight plan on PilotEdge
Remarks:
Altitude:
(Current/Filed)
8,000ft
Speed:
(Current/Filed)
0kts
Departed: 24-Jan-16 04:53 PM
Arrived: 24-Jan-16 05:22 PM
Distance/Time
Traveled:
99nm/0:28
Distance/Time
To Go:
Arrived

Flight Plot

Page will automatically refresh every two minutes.


Map Options




Map Legend


Flown Route
Filed Route
Departure Airport
Arrival Airport
Navaid (VOR, NDB)
Fix

Horizontal Profiles

Position Reports

Time Latitude Longitude Heading Altitude Ground
Speed
24-Jan-16 16:30 33.871865 -117.247234 329 1542ft 0kts
24-Jan-16 16:31 33.871865 -117.247234 329 1542ft 0kts
24-Jan-16 16:32 33.871865 -117.247234 329 1542ft 0kts
24-Jan-16 16:33 33.871865 -117.247234 329 1542ft 0kts
24-Jan-16 16:34 33.871865 -117.247234 329 1542ft 0kts
24-Jan-16 16:35 33.871865 -117.247234 329 1542ft 0kts
24-Jan-16 16:36 33.871865 -117.247234 329 1542ft 0kts
24-Jan-16 16:37 33.871865 -117.247234 329 1542ft 0kts
24-Jan-16 16:38 33.871865 -117.247234 329 1542ft 0kts
24-Jan-16 16:39 33.871865 -117.247234 329 1542ft 0kts
24-Jan-16 16:40 33.871865 -117.247234 329 1542ft 0kts
24-Jan-16 16:41 33.871850 -117.247224 329 1542ft 0kts
24-Jan-16 16:42 33.871822 -117.247204 329 1542ft 0kts
24-Jan-16 16:43 33.871700 -117.247803 238 1542ft 8kts
24-Jan-16 16:44 33.868120 -117.246731 170 1542ft 12kts
24-Jan-16 16:45 33.865627 -117.246989 240 1542ft 0kts
24-Jan-16 16:46 33.865627 -117.246989 240 1542ft 0kts
24-Jan-16 16:47 33.865180 -117.248044 260 1542ft 15kts
24-Jan-16 16:48 33.889094 -117.265810 328 2530ft 159kts
24-Jan-16 16:49 33.940202 -117.300465 329 4133ft 247kts
24-Jan-16 16:50 34.002993 -117.342278 329 5551ft 255kts
24-Jan-16 16:51 34.046442 -117.400373 289 6207ft 236kts
24-Jan-16 16:52 34.064502 -117.471123 282 7706ft 230kts
24-Jan-16 16:53 34.078165 -117.555055 281 7992ft 264kts
24-Jan-16 16:54 34.084475 -117.643831 268 7994ft 270kts
24-Jan-16 16:55 34.080681 -117.733826 268 8012ft 270kts
24-Jan-16 16:56 34.077463 -117.820299 269 8028ft 252kts
24-Jan-16 16:57 34.076548 -117.904415 270 8020ft 248kts
24-Jan-16 16:58 34.075383 -117.987554 270 8016ft 246kts
24-Jan-16 16:59 34.092911 -118.065680 292 8020ft 243kts
24-Jan-16 17:00 34.118165 -118.145581 292 7548ft 265kts
24-Jan-16 17:01 34.129412 -118.231974 272 6240ft 248kts
24-Jan-16 17:02 34.130706 -118.312988 272 6037ft 243kts
24-Jan-16 17:03 34.132556 -118.399850 272 6025ft 264kts
24-Jan-16 17:04 34.134313 -118.486382 272 5987ft 246kts
24-Jan-16 17:05 34.140091 -118.567896 282 5992ft 241kts
24-Jan-16 17:06 34.153337 -118.646900 283 5983ft 238kts
24-Jan-16 17:07 34.166447 -118.724429 283 6002ft 241kts
24-Jan-16 17:08 34.180070 -118.804656 283 5979ft 235kts
24-Jan-16 17:09 34.191566 -118.874912 281 5283ft 189kts
24-Jan-16 17:10 34.198774 -118.927427 283 4509ft 149kts
24-Jan-16 17:11 34.207251 -118.973029 275 3407ft 140kts
24-Jan-16 17:12 34.206365 -119.023116 259 3490ft 160kts
24-Jan-16 17:13 34.200663 -119.075807 266 2514ft 142kts
24-Jan-16 17:14 34.200459 -119.119537 269 1344ft 121kts
24-Jan-16 17:15 34.200511 -119.160208 269 725ft 118kts
24-Jan-16 17:16 34.200744 -119.199049 269 55ft 109kts
24-Jan-16 17:17 34.200120 -119.207198 167 50ft 0kts
24-Jan-16 17:18 34.199313 -119.206826 173 50ft 8kts
24-Jan-16 17:19 34.198943 -119.206618 101 50ft 0kts
24-Jan-16 17:20 34.198943 -119.206618 101 50ft 0kts
24-Jan-16 17:21 34.198943 -119.206618 101 50ft 0kts
24-Jan-16 17:22 34.198943 -119.206618 101 50ft 0kts

Navigation Log

Ident Type
Flight plan parsing failed, navigation log unavailable